Lewisville's Hourly Summary for Monday, March 13, 2017
Hour Temp
(f)
RH
(%)
Solar Rad.
(MJ/m2)
Rainfall
(in)
Wind
(mph)
3/13/2017 12:00 AM 49 76 0 0 6.47
3/13/2017 1:00 AM 49 80 0 0 4.89
3/13/2017 2:00 AM 49 80 0 0 4.6
3/13/2017 3:00 AM 49 81 0 0 5.28
3/13/2017 4:00 AM 49 81 0 0 3.49
3/13/2017 5:00 AM 49 82 0 0 3.57
3/13/2017 6:00 AM 49 87 0 0 5.66
3/13/2017 7:00 AM 49 84 0 0 4.55
3/13/2017 8:00 AM 49 84 0.01 0 3.48
3/13/2017 9:00 AM 49 82 0.05 0 2.92
3/13/2017 10:00 AM 50 75 0.34 0 4.41
3/13/2017 11:00 AM 52 70 1.08 0 7.18
3/13/2017 12:00 PM 53 66 1.16 0 9.2
3/13/2017 1:00 PM 54 61 1.59 0 9.75
3/13/2017 2:00 PM 57 49 2.81 0 8.73
3/13/2017 3:00 PM 59 41 2.69 0 10.24
3/13/2017 4:00 PM 61 33 2.37 0 10.46
3/13/2017 5:00 PM 61 32 1.82 0 11.06
3/13/2017 6:00 PM 59 31 1.16 0 12.36
3/13/2017 7:00 PM 56 29 0.49 0 11.53
3/13/2017 8:00 PM 54 29 0.05 0 9.69
3/13/2017 9:00 PM 51 31 0 0 8.84
3/13/2017 10:00 PM 50 34 0 0 10.01
3/13/2017 11:00 PM 48 38 0 0 9.35
Data Summary 52 59 15.62 0.00 7.41